createdAt,value
2024-01-15T00:00:29.974Z,5.97
2024-01-15T00:03:38.690Z,5.20
2024-01-15T00:06:46.112Z,4.97
2024-01-15T00:09:51.287Z,5.22
2024-01-15T00:12:55.100Z,4.78
2024-01-15T00:16:01.323Z,7.25
2024-01-15T00:19:06.066Z,7.20
2024-01-15T00:22:10.040Z,6.30
2024-01-15T00:25:18.950Z,6.65
2024-01-15T00:28:23.089Z,4.25
2024-01-15T00:31:26.794Z,5.60
2024-01-15T00:34:30.684Z,6.07
2024-01-15T00:37:34.917Z,8.30
2024-01-15T00:40:40.298Z,6.25
2024-01-15T00:43:45.180Z,5.63
2024-01-15T00:46:49.232Z,5.18
2024-01-15T00:49:54.900Z,5.97
2024-01-15T00:52:58.578Z,7.28
2024-01-15T00:56:05.737Z,5.63
2024-01-15T00:59:11.555Z,5.63
2024-01-15T01:02:15.286Z,7.30
2024-01-15T01:05:19.149Z,5.97
2024-01-15T01:08:24.338Z,6.28
2024-01-15T01:11:29.440Z,6.30
2024-01-15T01:14:34.755Z,6.05
2024-01-15T01:17:38.687Z,5.15
2024-01-15T01:20:42.902Z,6.07
2024-01-15T01:23:46.838Z,5.97
2024-01-15T01:26:53.099Z,5.47
2024-01-15T01:29:57.434Z,6.28
2024-01-15T01:33:02.999Z,8.40
2024-01-15T01:36:10.950Z,5.90
2024-01-15T01:39:20.540Z,6.40
2024-01-15T01:42:28.336Z,5.53
2024-01-15T01:45:34.734Z,7.30
2024-01-15T01:48:39.206Z,6.85
2024-01-15T01:51:43.116Z,7.28
2024-01-15T01:54:50.028Z,7.50
2024-01-15T01:57:59.596Z,6.60
2024-01-15T02:01:03.765Z,7.10
2024-01-15T02:04:08.579Z,6.80
2024-01-15T02:07:12.543Z,7.43
2024-01-15T02:10:16.697Z,6.72
2024-01-15T02:13:26.543Z,6.88
2024-01-15T02:16:31.945Z,7.22
2024-01-15T02:19:41.000Z,7.45
2024-01-15T02:22:44.746Z,8.05
2024-01-15T02:25:50.273Z,6.40
2024-01-15T02:28:54.796Z,7.53
2024-01-15T02:31:59.886Z,6.35
2024-01-15T02:35:03.706Z,6.47
2024-01-15T02:38:08.550Z,7.30
2024-01-15T02:41:17.219Z,7.47
2024-01-15T02:44:21.026Z,8.73
2024-01-15T02:47:27.836Z,8.23
2024-01-15T02:50:31.641Z,6.80
2024-01-15T02:53:35.390Z,6.55
2024-01-15T02:56:40.809Z,7.32
2024-01-15T02:59:44.429Z,9.38
2024-01-15T03:02:49.189Z,6.28
2024-01-15T03:05:55.611Z,6.68
2024-01-15T03:08:59.473Z,7.68
2024-01-15T03:12:05.948Z,5.22
2024-01-15T03:15:10.123Z,6.95
2024-01-15T03:18:13.860Z,7.55
2024-01-15T03:21:17.648Z,6.10
2024-01-15T03:24:21.747Z,7.72
2024-01-15T03:27:29.649Z,7.18
2024-01-15T03:33:37.261Z,6.97
2024-01-15T03:36:43.560Z,8.32
2024-01-15T03:39:55.788Z,7.30
2024-01-15T03:43:00.956Z,7.70
2024-01-15T03:46:06.341Z,8.43
2024-01-15T03:49:10.136Z,9.02
2024-01-15T03:52:14.465Z,7.30
2024-01-15T03:55:18.384Z,8.35
2024-01-15T03:58:26.621Z,8.10
2024-01-15T04:01:33.113Z,5.75
2024-01-15T04:04:37.192Z,7.15
2024-01-15T04:07:40.997Z,8.48
2024-01-15T04:10:44.698Z,9.13
2024-01-15T04:13:49.822Z,9.57
2024-01-15T04:16:53.576Z,7.38
2024-01-15T04:19:57.499Z,7.55
2024-01-15T04:23:01.266Z,7.95
2024-01-15T04:26:05.080Z,6.50
2024-01-15T04:29:10.277Z,7.03
2024-01-15T04:32:13.998Z,7.53
2024-01-15T04:35:17.988Z,7.45
2024-01-15T04:38:21.664Z,7.78
2024-01-15T04:41:25.465Z,7.68
2024-01-15T04:44:30.763Z,7.35
2024-01-15T04:47:34.489Z,7.57
2024-01-15T04:50:38.185Z,7.25
2024-01-15T04:53:41.871Z,7.88
2024-01-15T04:56:45.732Z,8.07
2024-01-15T04:59:50.883Z,8.02
2024-01-15T05:02:54.661Z,8.60
2024-01-15T05:05:58.396Z,8.52
2024-01-15T05:09:02.151Z,9.02
2024-01-15T05:12:06.675Z,7.95
2024-01-15T05:15:12.564Z,8.25
2024-01-15T05:18:16.540Z,8.60
2024-01-15T05:21:20.346Z,9.00
2024-01-15T05:24:24.152Z,8.55
2024-01-15T05:27:27.946Z,8.60
2024-01-15T05:30:33.254Z,9.63
2024-01-15T05:33:37.048Z,9.05
2024-01-15T05:36:41.384Z,8.63
2024-01-15T05:39:45.221Z,7.93
2024-01-15T05:42:49.093Z,7.55
2024-01-15T05:45:54.282Z,7.88
2024-01-15T05:48:58.267Z,8.18
2024-01-15T05:52:02.070Z,7.53
2024-01-15T05:55:06.258Z,9.27
2024-01-15T05:58:10.087Z,8.93
2024-01-15T06:01:15.327Z,8.35
2024-01-15T06:04:19.297Z,9.90
2024-01-15T06:07:23.988Z,8.95
2024-01-15T06:10:27.631Z,9.25
2024-01-15T06:13:31.306Z,11.10
2024-01-15T06:16:36.332Z,8.95
2024-01-15T06:19:40.220Z,11.40
2024-01-15T06:22:44.099Z,9.57
2024-01-15T06:25:47.860Z,7.80
2024-01-15T06:28:51.620Z,10.38
2024-01-15T06:31:56.824Z,8.07
2024-01-15T06:35:00.561Z,9.55
2024-01-15T06:38:04.437Z,10.23
2024-01-15T06:41:08.198Z,8.98
2024-01-15T06:44:12.202Z,9.40
2024-01-15T06:47:18.602Z,8.48
2024-01-15T06:50:22.507Z,8.70
2024-01-15T06:53:26.236Z,10.07
2024-01-15T06:56:30.018Z,10.30
2024-01-15T06:59:33.655Z,10.70
2024-01-15T07:02:38.893Z,10.25
2024-01-15T07:05:42.677Z,9.95
2024-01-15T07:08:46.368Z,8.25
2024-01-15T07:11:50.140Z,9.27
2024-01-15T07:14:53.912Z,8.32
2024-01-15T07:17:59.025Z,10.10
2024-01-15T07:21:03.992Z,10.93
2024-01-15T07:24:07.732Z,9.70
2024-01-15T07:27:11.567Z,10.90
2024-01-15T07:30:16.639Z,9.55
2024-01-15T07:33:22.073Z,8.77
2024-01-15T07:36:25.848Z,8.18
2024-01-15T07:39:30.205Z,10.10
2024-01-15T07:42:33.945Z,10.25
2024-01-15T07:45:38.020Z,8.40
2024-01-15T07:48:43.370Z,9.27
2024-01-15T07:51:47.222Z,8.73
2024-01-15T07:54:51.006Z,9.68
2024-01-15T07:58:06.777Z,10.73
2024-01-15T08:01:19.066Z,10.40
2024-01-15T08:04:24.691Z,10.48
2024-01-15T08:07:28.876Z,9.48
2024-01-15T08:10:32.512Z,9.18
2024-01-15T08:13:36.161Z,9.25
2024-01-15T08:16:40.259Z,7.30
2024-01-15T08:19:45.679Z,8.45
2024-01-15T08:22:49.580Z,9.80
2024-01-15T08:25:53.551Z,8.88
2024-01-15T08:28:57.461Z,8.55
2024-01-15T08:32:01.351Z,8.00
2024-01-15T08:35:07.478Z,8.38
2024-01-15T08:38:11.342Z,8.32
2024-01-15T08:41:15.795Z,9.40
2024-01-15T08:44:19.564Z,10.75
2024-01-15T08:47:23.600Z,9.35
2024-01-15T08:50:28.782Z,9.50
2024-01-15T08:53:32.455Z,10.25
2024-01-15T08:56:36.155Z,8.43
2024-01-15T08:59:39.961Z,7.65
2024-01-15T09:02:44.243Z,9.07
2024-01-15T09:05:51.343Z,9.98
2024-01-15T09:08:55.062Z,9.48
2024-01-15T09:11:58.820Z,8.75
2024-01-15T09:15:05.510Z,10.13
2024-01-15T09:18:09.576Z,10.70
2024-01-15T09:21:14.836Z,10.27
2024-01-15T09:24:18.524Z,8.77
2024-01-15T09:27:31.116Z,8.70
2024-01-15T09:30:34.831Z,9.23
2024-01-15T09:33:38.635Z,9.00
2024-01-15T09:36:44.636Z,9.40
2024-01-15T09:39:49.564Z,7.40
2024-01-15T09:42:54.739Z,8.43
2024-01-15T09:45:59.843Z,9.30
2024-01-15T09:49:04.044Z,9.25
2024-01-15T09:52:12.222Z,8.27
2024-01-15T09:55:17.645Z,9.15
2024-01-15T09:58:23.015Z,10.35
2024-01-15T10:01:27.844Z,7.65
2024-01-15T10:04:31.915Z,8.55
2024-01-15T10:07:38.472Z,9.27
2024-01-15T10:10:42.187Z,8.90
2024-01-15T10:13:47.716Z,10.30
2024-01-15T10:16:52.360Z,7.95
2024-01-15T10:19:56.112Z,9.43
2024-01-15T10:23:01.586Z,9.35
2024-01-15T10:26:05.996Z,8.55
2024-01-15T10:29:09.639Z,10.25
2024-01-15T10:32:14.163Z,9.25
2024-01-15T10:35:17.792Z,10.85
2024-01-15T10:38:23.415Z,7.75
2024-01-15T10:41:27.133Z,10.20
2024-01-15T10:44:31.337Z,9.70
2024-01-15T10:47:35.198Z,9.23
2024-01-15T10:50:38.934Z,9.02
2024-01-15T10:53:45.143Z,9.25
2024-01-15T10:56:49.635Z,8.30
2024-01-15T10:59:53.298Z,9.23
2024-01-15T11:02:57.265Z,8.80
2024-01-15T11:06:02.541Z,9.80
2024-01-15T11:09:09.121Z,9.20
2024-01-15T11:12:14.489Z,8.82
2024-01-15T11:15:22.989Z,9.32
2024-01-15T11:18:28.962Z,10.48
2024-01-15T11:21:32.786Z,10.40
2024-01-15T11:24:40.498Z,9.65
2024-01-15T11:27:45.297Z,9.13
2024-01-15T11:30:50.477Z,8.25
2024-01-15T11:33:54.380Z,9.38
2024-01-15T11:37:05.169Z,10.13
2024-01-15T11:40:13.299Z,9.48
2024-01-15T11:43:21.785Z,9.45
2024-01-15T11:46:33.490Z,9.65
2024-01-15T11:50:02.756Z,8.55
2024-01-15T11:53:19.265Z,10.07
2024-01-15T11:56:25.817Z,9.27
2024-01-15T11:59:29.570Z,10.02
2024-01-15T12:02:33.287Z,11.13
2024-01-15T12:05:40.027Z,8.45
2024-01-15T12:08:43.905Z,9.18
2024-01-15T12:11:57.091Z,9.00
2024-01-15T12:15:01.110Z,8.65
2024-01-15T12:18:05.764Z,10.82
2024-01-15T12:21:09.815Z,7.90
2024-01-15T12:24:13.588Z,9.38
2024-01-15T12:27:19.216Z,8.95
2024-01-15T12:30:23.109Z,9.77
2024-01-15T12:33:26.914Z,10.00
2024-01-15T12:36:33.456Z,9.55
2024-01-15T12:39:37.419Z,10.27
2024-01-15T12:42:44.178Z,8.85
2024-01-15T12:45:48.395Z,9.02
2024-01-15T12:48:52.259Z,9.05
2024-01-15T12:51:56.261Z,7.57
2024-01-15T12:54:59.952Z,10.75
2024-01-15T12:58:05.208Z,9.98
2024-01-15T13:01:09.078Z,9.85
2024-01-15T13:04:13.027Z,9.75
2024-01-15T13:07:16.768Z,8.57
2024-01-15T13:10:20.511Z,8.60
2024-01-15T13:13:25.627Z,9.52
2024-01-15T13:16:30.368Z,9.05
2024-01-15T13:19:34.298Z,9.32
2024-01-15T13:22:40.488Z,8.77
2024-01-15T13:25:44.175Z,9.13
2024-01-15T13:28:50.051Z,8.02
2024-01-15T13:31:53.767Z,9.27
2024-01-15T13:34:57.992Z,9.85
2024-01-15T13:38:01.778Z,9.77
2024-01-15T13:41:05.645Z,9.07
2024-01-15T13:44:11.841Z,10.20
2024-01-15T13:47:15.643Z,9.50
2024-01-15T13:50:19.671Z,9.95
2024-01-15T13:53:23.277Z,10.25
2024-01-15T13:56:31.893Z,9.73
2024-01-15T13:59:37.052Z,9.30
2024-01-15T14:02:40.749Z,8.80
2024-01-15T14:05:45.716Z,10.65
2024-01-15T14:08:49.375Z,9.65
2024-01-15T14:11:53.140Z,7.57
2024-01-15T14:14:58.248Z,10.57
2024-01-15T14:18:02.398Z,8.90
2024-01-15T14:21:06.736Z,9.77
2024-01-15T14:24:10.404Z,9.85
2024-01-15T14:27:14.030Z,10.27
2024-01-15T14:30:19.546Z,8.68
2024-01-15T14:33:23.540Z,10.60
2024-01-15T14:36:27.455Z,10.43
2024-01-15T14:39:33.224Z,10.23
2024-01-15T14:42:37.937Z,9.30
2024-01-15T14:45:44.299Z,10.52
2024-01-15T14:48:48.538Z,8.95
2024-01-15T14:51:52.805Z,10.05
2024-01-15T14:54:56.626Z,9.18
2024-01-15T14:58:00.488Z,9.57
2024-01-15T15:01:06.462Z,10.85
2024-01-15T15:04:11.740Z,11.02
2024-01-15T15:07:15.569Z,10.35
2024-01-15T15:10:19.708Z,10.65
2024-01-15T15:13:33.984Z,11.35
2024-01-15T15:16:47.962Z,10.65
2024-01-15T15:19:54.766Z,12.32
2024-01-15T15:22:58.720Z,12.85
2024-01-15T15:26:02.430Z,10.77
2024-01-15T15:29:06.212Z,13.10
2024-01-15T15:32:14.054Z,12.70
2024-01-15T15:35:17.870Z,12.88
2024-01-15T15:38:22.254Z,12.75
2024-01-15T15:41:27.125Z,12.15
2024-01-15T15:44:30.938Z,11.77
2024-01-15T15:47:36.192Z,11.35
2024-01-15T15:50:40.233Z,11.15
2024-01-15T15:53:44.036Z,11.52
2024-01-15T15:56:50.942Z,10.70
2024-01-15T15:59:58.569Z,10.63
2024-01-15T16:03:03.806Z,11.20
2024-01-15T16:06:07.900Z,10.88
2024-01-15T16:09:12.517Z,11.00
2024-01-15T16:12:16.455Z,10.15
2024-01-15T16:15:22.435Z,12.20
2024-01-15T16:23:20.940Z,9.63
2024-01-15T16:23:38.680Z,11.98
2024-01-15T16:25:21.726Z,10.38
2024-01-15T16:28:26.772Z,10.13
2024-01-15T16:31:32.940Z,10.05
2024-01-15T16:34:38.232Z,10.80
2024-01-15T16:37:44.683Z,10.07
2024-01-15T16:40:48.921Z,10.57
2024-01-15T16:43:52.636Z,11.70
2024-01-15T16:47:06.715Z,10.45
2024-01-15T16:50:13.642Z,12.55
2024-01-15T16:53:17.426Z,9.43
2024-01-15T16:56:21.432Z,12.73
2024-01-15T16:59:27.741Z,10.98
2024-01-15T17:02:31.733Z,10.80
2024-01-15T17:05:37.550Z,11.68
2024-01-15T17:08:41.622Z,10.88
2024-01-15T17:11:46.990Z,10.40
2024-01-15T17:14:51.150Z,10.82
2024-01-15T17:17:55.500Z,10.77
2024-01-15T17:21:01.280Z,10.40
2024-01-15T17:24:06.742Z,9.63
2024-01-15T17:27:10.488Z,9.63
2024-01-15T17:30:14.587Z,10.82
2024-01-15T17:33:18.472Z,10.35
2024-01-15T17:36:24.073Z,10.30
2024-01-15T17:39:28.237Z,11.95
2024-01-15T17:42:34.501Z,10.70
2024-01-15T17:45:39.531Z,8.98
2024-01-15T17:48:43.776Z,10.00
2024-01-15T17:51:51.815Z,9.98
2024-01-15T17:54:55.520Z,10.65
2024-01-15T17:58:00.167Z,11.05
2024-01-15T18:01:04.101Z,11.18
2024-01-15T18:04:08.750Z,9.70
2024-01-15T18:07:16.701Z,10.88
2024-01-15T18:10:21.091Z,12.15
2024-01-15T18:13:24.932Z,10.98
2024-01-15T18:16:28.757Z,11.32
2024-01-15T18:19:32.732Z,10.43
2024-01-15T18:22:38.285Z,9.70
2024-01-15T18:25:44.674Z,9.85
2024-01-15T18:28:49.786Z,10.77
2024-01-15T18:31:53.857Z,10.93
2024-01-15T18:34:57.997Z,10.05
2024-01-15T18:38:03.403Z,9.35
2024-01-15T18:41:07.428Z,11.13
2024-01-15T18:44:11.651Z,9.82
2024-01-15T18:47:16.283Z,12.07
2024-01-15T18:50:20.381Z,10.00
2024-01-15T18:53:31.485Z,10.10
2024-01-15T18:56:37.330Z,10.48
2024-01-15T18:59:42.168Z,12.32
2024-01-15T19:02:51.040Z,10.13
2024-01-15T19:05:55.673Z,11.98
2024-01-15T19:09:00.807Z,11.35
2024-01-15T19:12:05.524Z,10.70
2024-01-15T19:15:10.395Z,13.20
2024-01-15T19:18:15.349Z,11.13
2024-01-15T19:21:22.899Z,10.98
2024-01-15T19:24:30.715Z,11.68
2024-01-15T19:27:34.904Z,9.27
2024-01-15T19:30:45.774Z,11.35
2024-01-15T19:33:55.199Z,11.82
2024-01-15T19:36:58.964Z,12.20
2024-01-15T19:40:04.279Z,13.00
2024-01-15T19:43:08.940Z,10.70
2024-01-15T19:46:12.965Z,10.63
2024-01-15T19:49:18.746Z,11.95
2024-01-15T19:52:22.446Z,10.15
2024-01-15T19:55:33.050Z,10.38
2024-01-15T19:58:40.292Z,10.88
2024-01-15T20:01:47.970Z,11.20
2024-01-15T20:04:51.684Z,12.68
2024-01-15T20:07:55.534Z,13.27
2024-01-15T20:11:01.169Z,10.68
2024-01-15T20:14:08.313Z,11.45
2024-01-15T20:17:12.783Z,10.90
2024-01-15T20:20:18.004Z,10.57
2024-01-15T20:23:21.995Z,11.75
2024-01-15T20:26:27.145Z,11.77
2024-01-15T20:29:32.023Z,10.43
2024-01-15T20:32:35.818Z,12.15
2024-01-15T20:35:39.601Z,12.35
2024-01-15T20:38:45.775Z,11.05
2024-01-15T20:41:51.656Z,10.93
2024-01-15T20:44:55.660Z,10.88
2024-01-15T20:48:01.518Z,12.70
2024-01-15T20:51:06.341Z,11.38
2024-01-15T20:54:10.260Z,11.07
2024-01-15T20:57:15.389Z,11.65
2024-01-15T21:00:19.997Z,10.32
2024-01-15T21:03:23.735Z,11.75
2024-01-15T21:06:28.328Z,13.70
2024-01-15T21:09:32.427Z,12.15
2024-01-15T21:12:38.972Z,11.82
2024-01-15T21:15:45.619Z,10.85
2024-01-15T21:18:52.954Z,11.65
2024-01-15T21:21:56.619Z,12.83
2024-01-15T21:25:00.597Z,9.18
2024-01-15T21:28:08.537Z,13.23
2024-01-15T21:31:12.469Z,13.32
2024-01-15T21:34:17.152Z,11.77
2024-01-15T21:37:20.836Z,12.00
2024-01-15T21:40:27.476Z,10.02
2024-01-15T21:43:35.320Z,10.15
2024-01-15T21:49:44.136Z,11.57
2024-01-15T21:52:47.822Z,12.02
2024-01-15T21:55:52.898Z,11.02
2024-01-15T21:58:58.926Z,12.02
2024-01-15T22:02:09.659Z,11.90
2024-01-15T22:05:19.479Z,12.50
2024-01-15T22:08:24.880Z,11.02
2024-01-15T22:11:30.232Z,13.05
2024-01-15T22:14:38.334Z,12.20
2024-01-15T22:17:44.294Z,12.25
2024-01-15T22:20:48.141Z,12.43
2024-01-15T22:23:51.843Z,12.82
2024-01-15T22:26:55.691Z,13.00
2024-01-15T22:30:00.835Z,11.55
2024-01-15T22:33:04.711Z,12.38
2024-01-15T22:36:08.998Z,12.27
2024-01-15T22:39:12.672Z,11.32
2024-01-15T22:42:16.328Z,12.25
2024-01-15T22:45:21.609Z,12.85
2024-01-15T22:48:25.818Z,12.20
2024-01-15T22:51:29.626Z,11.75
2024-01-15T22:54:33.293Z,11.52
2024-01-15T22:57:37.536Z,11.50
2024-01-15T23:00:45.047Z,12.63
2024-01-15T23:03:49.384Z,11.88
2024-01-15T23:06:53.062Z,11.23
2024-01-15T23:09:56.653Z,11.02
2024-01-15T23:13:00.537Z,12.90
2024-01-15T23:16:05.731Z,13.18
2024-01-15T23:19:09.477Z,11.82
2024-01-15T23:22:13.538Z,11.52
2024-01-15T23:25:17.221Z,13.32
2024-01-15T23:28:22.508Z,11.52
2024-01-15T23:31:27.662Z,11.73
2024-01-15T23:34:31.347Z,11.18
2024-01-15T23:37:35.075Z,11.52
2024-01-15T23:40:38.694Z,10.77
2024-01-15T23:43:42.291Z,10.98
2024-01-15T23:46:47.348Z,12.18
2024-01-15T23:49:50.968Z,12.05
2024-01-15T23:52:54.633Z,12.07
2024-01-15T23:55:58.254Z,11.50
2024-01-15T23:59:02.023Z,9.75
